sensor_id;sensor_type;location;lat;lon;timestamp;P1;durP1;ratioP1;P2;durP2;ratioP2
50781;SDS011;36749;37.428;-121.972;2023-10-31T00:02:16;6.35;;;3.40;;
50781;SDS011;36749;37.428;-121.972;2023-10-31T00:04:43;6.88;;;3.72;;
50781;SDS011;36749;37.428;-121.972;2023-10-31T00:07:09;5.53;;;3.60;;
50781;SDS011;36749;37.428;-121.972;2023-10-31T00:09:38;11.82;;;3.67;;
50781;SDS011;36749;37.428;-121.972;2023-10-31T00:12:05;8.25;;;4.10;;
50781;SDS011;36749;37.428;-121.972;2023-10-31T00:14:31;7.18;;;3.70;;
50781;SDS011;36749;37.428;-121.972;2023-10-31T00:16:58;10.13;;;3.95;;
50781;SDS011;36749;37.428;-121.972;2023-10-31T00:19:24;8.07;;;3.92;;
50781;SDS011;36749;37.428;-121.972;2023-10-31T00:21:51;11.18;;;4.70;;
50781;SDS011;36749;37.428;-121.972;2023-10-31T00:24:17;8.00;;;3.78;;
50781;SDS011;36749;37.428;-121.972;2023-10-31T00:26:43;11.98;;;4.45;;
50781;SDS011;36749;37.428;-121.972;2023-10-31T00:29:10;10.07;;;4.28;;
50781;SDS011;36749;37.428;-121.972;2023-10-31T00:31:36;15.23;;;5.00;;
50781;SDS011;36749;37.428;-121.972;2023-10-31T00:34:06;10.73;;;4.63;;
50781;SDS011;36749;37.428;-121.972;2023-10-31T00:36:33;11.60;;;4.30;;
50781;SDS011;36749;37.428;-121.972;2023-10-31T00:39:00;11.70;;;4.22;;
50781;SDS011;36749;37.428;-121.972;2023-10-31T00:41:26;7.93;;;4.10;;
50781;SDS011;36749;37.428;-121.972;2023-10-31T00:43:52;6.32;;;3.92;;
50781;SDS011;36749;37.428;-121.972;2023-10-31T00:46:18;8.75;;;4.15;;
50781;SDS011;36749;37.428;-121.972;2023-10-31T00:48:44;7.82;;;4.07;;
50781;SDS011;36749;37.428;-121.972;2023-10-31T00:51:11;10.02;;;4.75;;
50781;SDS011;36749;37.428;-121.972;2023-10-31T00:53:37;12.27;;;5.07;;
50781;SDS011;36749;37.428;-121.972;2023-10-31T00:56:03;10.02;;;4.55;;
50781;SDS011;36749;37.428;-121.972;2023-10-31T00:58:30;13.98;;;5.30;;
50781;SDS011;36749;37.428;-121.972;2023-10-31T01:00:56;11.98;;;4.43;;
50781;SDS011;36749;37.428;-121.972;2023-10-31T01:03:23;17.50;;;4.63;;
50781;SDS011;36749;37.428;-121.972;2023-10-31T01:05:49;12.95;;;5.47;;
50781;SDS011;36749;37.428;-121.972;2023-10-31T01:08:15;7.13;;;4.18;;
50781;SDS011;36749;37.428;-121.972;2023-10-31T01:10:41;16.25;;;4.88;;
50781;SDS011;36749;37.428;-121.972;2023-10-31T01:13:08;10.43;;;5.22;;
50781;SDS011;36749;37.428;-121.972;2023-10-31T01:15:34;11.93;;;4.25;;
50781;SDS011;36749;37.428;-121.972;2023-10-31T01:18:00;11.18;;;4.43;;
50781;SDS011;36749;37.428;-121.972;2023-10-31T01:20:26;9.95;;;4.50;;
50781;SDS011;36749;37.428;-121.972;2023-10-31T01:22:53;8.75;;;4.35;;
50781;SDS011;36749;37.428;-121.972;2023-10-31T01:25:19;13.02;;;4.10;;
50781;SDS011;36749;37.428;-121.972;2023-10-31T01:27:45;9.93;;;4.05;;
50781;SDS011;36749;37.428;-121.972;2023-10-31T01:30:12;10.95;;;4.63;;
50781;SDS011;36749;37.428;-121.972;2023-10-31T01:32:39;7.90;;;4.25;;
50781;SDS011;36749;37.428;-121.972;2023-10-31T01:35:05;7.75;;;3.90;;
50781;SDS011;36749;37.428;-121.972;2023-10-31T01:37:31;9.90;;;4.60;;
50781;SDS011;36749;37.428;-121.972;2023-10-31T01:39:58;10.25;;;4.70;;
50781;SDS011;36749;37.428;-121.972;2023-10-31T01:42:24;12.60;;;5.55;;
50781;SDS011;36749;37.428;-121.972;2023-10-31T01:44:50;8.57;;;4.03;;
50781;SDS011;36749;37.428;-121.972;2023-10-31T01:47:16;10.90;;;4.35;;
50781;SDS011;36749;37.428;-121.972;2023-10-31T01:49:42;8.80;;;4.68;;
50781;SDS011;36749;37.428;-121.972;2023-10-31T01:52:09;11.27;;;4.75;;
50781;SDS011;36749;37.428;-121.972;2023-10-31T01:54:35;12.85;;;4.30;;
50781;SDS011;36749;37.428;-121.972;2023-10-31T01:57:02;12.90;;;4.63;;
50781;SDS011;36749;37.428;-121.972;2023-10-31T01:59:30;9.05;;;4.50;;
50781;SDS011;36749;37.428;-121.972;2023-10-31T02:01:56;12.05;;;4.72;;
50781;SDS011;36749;37.428;-121.972;2023-10-31T02:04:26;12.52;;;5.13;;
50781;SDS011;36749;37.428;-121.972;2023-10-31T02:06:52;10.20;;;5.78;;
50781;SDS011;36749;37.428;-121.972;2023-10-31T02:09:18;10.15;;;5.25;;
50781;SDS011;36749;37.428;-121.972;2023-10-31T02:11:49;13.35;;;5.40;;
50781;SDS011;36749;37.428;-121.972;2023-10-31T02:14:15;8.60;;;4.45;;
50781;SDS011;36749;37.428;-121.972;2023-10-31T02:16:41;21.13;;;5.25;;
50781;SDS011;36749;37.428;-121.972;2023-10-31T02:19:07;10.07;;;4.90;;
50781;SDS011;36749;37.428;-121.972;2023-10-31T02:21:38;11.38;;;5.03;;
50781;SDS011;36749;37.428;-121.972;2023-10-31T02:24:05;10.85;;;4.60;;
50781;SDS011;36749;37.428;-121.972;2023-10-31T02:26:32;8.05;;;4.40;;
50781;SDS011;36749;37.428;-121.972;2023-10-31T02:28:59;10.73;;;5.13;;
50781;SDS011;36749;37.428;-121.972;2023-10-31T02:31:26;15.05;;;6.30;;
50781;SDS011;36749;37.428;-121.972;2023-10-31T02:33:52;12.43;;;5.00;;
50781;SDS011;36749;37.428;-121.972;2023-10-31T02:36:18;12.05;;;5.05;;
50781;SDS011;36749;37.428;-121.972;2023-10-31T02:38:45;11.70;;;5.28;;
50781;SDS011;36749;37.428;-121.972;2023-10-31T02:41:11;9.95;;;4.85;;
50781;SDS011;36749;37.428;-121.972;2023-10-31T02:43:38;9.85;;;4.82;;
50781;SDS011;36749;37.428;-121.972;2023-10-31T02:46:04;10.65;;;4.93;;
50781;SDS011;36749;37.428;-121.972;2023-10-31T02:48:31;11.02;;;5.45;;
50781;SDS011;36749;37.428;-121.972;2023-10-31T02:51:03;12.68;;;5.45;;
50781;SDS011;36749;37.428;-121.972;2023-10-31T02:53:30;10.05;;;5.20;;
50781;SDS011;36749;37.428;-121.972;2023-10-31T02:55:56;13.65;;;6.20;;
50781;SDS011;36749;37.428;-121.972;2023-10-31T02:58:22;11.90;;;5.57;;
50781;SDS011;36749;37.428;-121.972;2023-10-31T03:00:49;11.18;;;6.20;;
50781;SDS011;36749;37.428;-121.972;2023-10-31T03:03:15;18.30;;;6.82;;
50781;SDS011;36749;37.428;-121.972;2023-10-31T03:05:41;14.65;;;5.57;;
50781;SDS011;36749;37.428;-121.972;2023-10-31T03:08:07;14.02;;;5.43;;
50781;SDS011;36749;37.428;-121.972;2023-10-31T03:10:35;8.98;;;5.07;;
50781;SDS011;36749;37.428;-121.972;2023-10-31T03:13:03;12.90;;;5.45;;
50781;SDS011;36749;37.428;-121.972;2023-10-31T03:15:29;12.90;;;5.57;;
50781;SDS011;36749;37.428;-121.972;2023-10-31T03:17:56;15.20;;;5.45;;
50781;SDS011;36749;37.428;-121.972;2023-10-31T03:20:22;11.55;;;4.78;;
50781;SDS011;36749;37.428;-121.972;2023-10-31T03:22:48;11.05;;;4.75;;
50781;SDS011;36749;37.428;-121.972;2023-10-31T03:25:15;10.65;;;4.93;;
50781;SDS011;36749;37.428;-121.972;2023-10-31T03:27:41;10.88;;;5.25;;
50781;SDS011;36749;37.428;-121.972;2023-10-31T03:30:08;10.63;;;4.80;;
50781;SDS011;36749;37.428;-121.972;2023-10-31T03:32:34;7.65;;;4.68;;
50781;SDS011;36749;37.428;-121.972;2023-10-31T03:35:00;9.50;;;5.00;;
50781;SDS011;36749;37.428;-121.972;2023-10-31T03:37:27;13.23;;;5.00;;
50781;SDS011;36749;37.428;-121.972;2023-10-31T03:39:53;6.75;;;4.50;;
50781;SDS011;36749;37.428;-121.972;2023-10-31T03:42:20;8.82;;;4.95;;
50781;SDS011;36749;37.428;-121.972;2023-10-31T03:44:46;12.10;;;4.97;;
50781;SDS011;36749;37.428;-121.972;2023-10-31T03:47:12;13.10;;;5.18;;
50781;SDS011;36749;37.428;-121.972;2023-10-31T03:49:41;12.68;;;5.20;;
50781;SDS011;36749;37.428;-121.972;2023-10-31T03:52:08;9.57;;;4.57;;
50781;SDS011;36749;37.428;-121.972;2023-10-31T03:54:34;15.10;;;5.43;;
50781;SDS011;36749;37.428;-121.972;2023-10-31T03:57:00;11.00;;;5.80;;
50781;SDS011;36749;37.428;-121.972;2023-10-31T03:59:26;11.27;;;5.10;;
50781;SDS011;36749;37.428;-121.972;2023-10-31T04:01:52;10.00;;;4.60;;
50781;SDS011;36749;37.428;-121.972;2023-10-31T04:04:18;9.43;;;5.00;;
50781;SDS011;36749;37.428;-121.972;2023-10-31T04:06:45;9.23;;;4.65;;
50781;SDS011;36749;37.428;-121.972;2023-10-31T04:09:11;12.77;;;5.85;;
50781;SDS011;36749;37.428;-121.972;2023-10-31T04:11:37;10.32;;;5.15;;
50781;SDS011;36749;37.428;-121.972;2023-10-31T04:14:04;11.50;;;5.05;;
50781;SDS011;36749;37.428;-121.972;2023-10-31T04:16:31;7.93;;;4.68;;
50781;SDS011;36749;37.428;-121.972;2023-10-31T04:18:57;9.38;;;5.90;;
50781;SDS011;36749;37.428;-121.972;2023-10-31T04:21:23;7.68;;;4.38;;
50781;SDS011;36749;37.428;-121.972;2023-10-31T04:23:50;14.73;;;6.13;;
50781;SDS011;36749;37.428;-121.972;2023-10-31T04:26:16;12.20;;;5.45;;
50781;SDS011;36749;37.428;-121.972;2023-10-31T04:28:42;11.30;;;5.80;;
50781;SDS011;36749;37.428;-121.972;2023-10-31T04:31:08;12.40;;;5.72;;
50781;SDS011;36749;37.428;-121.972;2023-10-31T04:33:34;12.45;;;6.13;;
50781;SDS011;36749;37.428;-121.972;2023-10-31T04:36:01;11.35;;;5.35;;
50781;SDS011;36749;37.428;-121.972;2023-10-31T04:38:27;11.80;;;5.75;;
50781;SDS011;36749;37.428;-121.972;2023-10-31T04:40:53;10.80;;;5.90;;
50781;SDS011;36749;37.428;-121.972;2023-10-31T04:43:19;11.80;;;5.85;;
50781;SDS011;36749;37.428;-121.972;2023-10-31T04:45:46;11.65;;;6.22;;
50781;SDS011;36749;37.428;-121.972;2023-10-31T04:48:12;14.05;;;6.30;;
50781;SDS011;36749;37.428;-121.972;2023-10-31T04:50:38;13.45;;;6.28;;
50781;SDS011;36749;37.428;-121.972;2023-10-31T04:53:05;12.55;;;6.07;;
50781;SDS011;36749;37.428;-121.972;2023-10-31T04:55:31;13.88;;;6.75;;
50781;SDS011;36749;37.428;-121.972;2023-10-31T04:57:57;11.73;;;5.90;;
50781;SDS011;36749;37.428;-121.972;2023-10-31T05:00:23;8.27;;;5.20;;
50781;SDS011;36749;37.428;-121.972;2023-10-31T05:02:49;10.85;;;5.53;;
50781;SDS011;36749;37.428;-121.972;2023-10-31T05:05:16;12.82;;;5.95;;
50781;SDS011;36749;37.428;-121.972;2023-10-31T05:07:42;10.90;;;5.20;;
50781;SDS011;36749;37.428;-121.972;2023-10-31T05:10:08;13.70;;;5.63;;
50781;SDS011;36749;37.428;-121.972;2023-10-31T05:12:35;11.45;;;5.20;;
50781;SDS011;36749;37.428;-121.972;2023-10-31T05:15:02;12.27;;;5.43;;
50781;SDS011;36749;37.428;-121.972;2023-10-31T05:17:28;10.80;;;5.53;;
50781;SDS011;36749;37.428;-121.972;2023-10-31T05:19:54;13.45;;;5.15;;
50781;SDS011;36749;37.428;-121.972;2023-10-31T05:22:21;12.98;;;5.53;;
50781;SDS011;36749;37.428;-121.972;2023-10-31T05:24:47;13.68;;;5.25;;
50781;SDS011;36749;37.428;-121.972;2023-10-31T05:27:13;13.35;;;5.22;;
50781;SDS011;36749;37.428;-121.972;2023-10-31T05:29:40;11.63;;;5.28;;
50781;SDS011;36749;37.428;-121.972;2023-10-31T05:32:06;9.30;;;5.18;;
50781;SDS011;36749;37.428;-121.972;2023-10-31T05:34:32;11.32;;;5.25;;
50781;SDS011;36749;37.428;-121.972;2023-10-31T05:36:58;11.13;;;4.75;;
50781;SDS011;36749;37.428;-121.972;2023-10-31T05:39:25;12.48;;;5.32;;
50781;SDS011;36749;37.428;-121.972;2023-10-31T05:41:51;14.13;;;5.50;;
50781;SDS011;36749;37.428;-121.972;2023-10-31T05:44:18;10.43;;;5.50;;
50781;SDS011;36749;37.428;-121.972;2023-10-31T05:46:44;11.57;;;5.30;;
50781;SDS011;36749;37.428;-121.972;2023-10-31T05:49:10;11.52;;;5.30;;
50781;SDS011;36749;37.428;-121.972;2023-10-31T05:51:36;11.18;;;5.63;;
50781;SDS011;36749;37.428;-121.972;2023-10-31T05:54:02;12.88;;;6.15;;
50781;SDS011;36749;37.428;-121.972;2023-10-31T05:56:29;15.63;;;5.90;;
50781;SDS011;36749;37.428;-121.972;2023-10-31T05:58:55;10.32;;;4.88;;
50781;SDS011;36749;37.428;-121.972;2023-10-31T06:01:22;12.52;;;5.80;;
50781;SDS011;36749;37.428;-121.972;2023-10-31T06:03:48;9.70;;;5.28;;
50781;SDS011;36749;37.428;-121.972;2023-10-31T06:06:14;14.10;;;5.97;;
50781;SDS011;36749;37.428;-121.972;2023-10-31T06:08:41;12.63;;;5.90;;
50781;SDS011;36749;37.428;-121.972;2023-10-31T06:11:07;10.70;;;5.00;;
50781;SDS011;36749;37.428;-121.972;2023-10-31T06:13:33;10.40;;;4.63;;
50781;SDS011;36749;37.428;-121.972;2023-10-31T06:16:00;10.55;;;5.05;;
50781;SDS011;36749;37.428;-121.972;2023-10-31T06:18:26;8.80;;;4.40;;
50781;SDS011;36749;37.428;-121.972;2023-10-31T06:20:53;10.80;;;5.50;;
50781;SDS011;36749;37.428;-121.972;2023-10-31T06:23:19;9.63;;;4.72;;
50781;SDS011;36749;37.428;-121.972;2023-10-31T06:25:45;13.80;;;5.50;;
50781;SDS011;36749;37.428;-121.972;2023-10-31T06:28:12;12.25;;;5.68;;
50781;SDS011;36749;37.428;-121.972;2023-10-31T06:30:38;12.23;;;6.10;;
50781;SDS011;36749;37.428;-121.972;2023-10-31T06:33:04;13.20;;;5.88;;
50781;SDS011;36749;37.428;-121.972;2023-10-31T06:35:32;12.43;;;5.60;;
50781;SDS011;36749;37.428;-121.972;2023-10-31T06:37:59;13.10;;;5.55;;
50781;SDS011;36749;37.428;-121.972;2023-10-31T06:40:26;13.23;;;5.95;;
50781;SDS011;36749;37.428;-121.972;2023-10-31T06:42:52;15.35;;;6.45;;
50781;SDS011;36749;37.428;-121.972;2023-10-31T06:45:19;12.45;;;6.18;;
50781;SDS011;36749;37.428;-121.972;2023-10-31T06:47:45;13.77;;;5.80;;
50781;SDS011;36749;37.428;-121.972;2023-10-31T06:50:11;17.50;;;7.15;;
50781;SDS011;36749;37.428;-121.972;2023-10-31T06:52:37;11.80;;;6.78;;
50781;SDS011;36749;37.428;-121.972;2023-10-31T06:55:04;16.25;;;6.80;;
50781;SDS011;36749;37.428;-121.972;2023-10-31T06:57:30;14.70;;;6.13;;
50781;SDS011;36749;37.428;-121.972;2023-10-31T06:59:56;13.80;;;6.32;;
50781;SDS011;36749;37.428;-121.972;2023-10-31T07:02:23;15.15;;;6.55;;
50781;SDS011;36749;37.428;-121.972;2023-10-31T07:04:51;14.75;;;6.35;;
50781;SDS011;36749;37.428;-121.972;2023-10-31T07:07:17;13.18;;;6.57;;
50781;SDS011;36749;37.428;-121.972;2023-10-31T07:09:43;13.55;;;6.57;;
50781;SDS011;36749;37.428;-121.972;2023-10-31T07:12:10;16.40;;;6.32;;
50781;SDS011;36749;37.428;-121.972;2023-10-31T07:14:36;15.65;;;6.70;;
50781;SDS011;36749;37.428;-121.972;2023-10-31T07:17:02;16.40;;;7.03;;
50781;SDS011;36749;37.428;-121.972;2023-10-31T07:19:28;13.20;;;6.32;;
50781;SDS011;36749;37.428;-121.972;2023-10-31T07:21:54;13.77;;;6.13;;
50781;SDS011;36749;37.428;-121.972;2023-10-31T07:24:21;11.57;;;6.07;;
50781;SDS011;36749;37.428;-121.972;2023-10-31T07:26:47;13.70;;;6.43;;
50781;SDS011;36749;37.428;-121.972;2023-10-31T07:29:13;15.18;;;6.68;;
50781;SDS011;36749;37.428;-121.972;2023-10-31T07:31:39;14.68;;;5.95;;
50781;SDS011;36749;37.428;-121.972;2023-10-31T07:34:05;16.25;;;6.40;;
50781;SDS011;36749;37.428;-121.972;2023-10-31T07:36:31;17.67;;;7.10;;
50781;SDS011;36749;37.428;-121.972;2023-10-31T07:39:00;12.77;;;6.35;;
50781;SDS011;36749;37.428;-121.972;2023-10-31T07:41:27;12.85;;;6.90;;
50781;SDS011;36749;37.428;-121.972;2023-10-31T07:43:53;13.75;;;7.20;;
50781;SDS011;36749;37.428;-121.972;2023-10-31T07:46:19;15.75;;;7.15;;
50781;SDS011;36749;37.428;-121.972;2023-10-31T07:48:45;15.27;;;7.25;;
50781;SDS011;36749;37.428;-121.972;2023-10-31T07:51:12;12.52;;;6.07;;
50781;SDS011;36749;37.428;-121.972;2023-10-31T07:53:38;13.73;;;7.18;;
50781;SDS011;36749;37.428;-121.972;2023-10-31T07:56:04;11.23;;;5.93;;
50781;SDS011;36749;37.428;-121.972;2023-10-31T07:58:31;12.63;;;5.97;;
50781;SDS011;36749;37.428;-121.972;2023-10-31T08:00:57;14.30;;;6.57;;
50781;SDS011;36749;37.428;-121.972;2023-10-31T08:03:23;13.23;;;6.18;;
50781;SDS011;36749;37.428;-121.972;2023-10-31T08:05:50;16.17;;;5.85;;
50781;SDS011;36749;37.428;-121.972;2023-10-31T08:08:16;13.10;;;7.03;;
50781;SDS011;36749;37.428;-121.972;2023-10-31T08:10:42;10.75;;;5.18;;
50781;SDS011;36749;37.428;-121.972;2023-10-31T08:13:09;14.32;;;6.03;;
50781;SDS011;36749;37.428;-121.972;2023-10-31T08:15:35;11.35;;;6.43;;
50781;SDS011;36749;37.428;-121.972;2023-10-31T08:18:02;13.95;;;6.07;;
50781;SDS011;36749;37.428;-121.972;2023-10-31T08:20:28;13.57;;;6.55;;
50781;SDS011;36749;37.428;-121.972;2023-10-31T08:22:58;11.50;;;6.35;;
50781;SDS011;36749;37.428;-121.972;2023-10-31T08:25:24;14.18;;;6.30;;
50781;SDS011;36749;37.428;-121.972;2023-10-31T08:27:51;12.25;;;6.25;;
50781;SDS011;36749;37.428;-121.972;2023-10-31T08:30:17;13.18;;;6.32;;
50781;SDS011;36749;37.428;-121.972;2023-10-31T08:32:43;13.98;;;6.05;;
50781;SDS011;36749;37.428;-121.972;2023-10-31T08:35:09;13.63;;;6.53;;
50781;SDS011;36749;37.428;-121.972;2023-10-31T08:37:35;13.70;;;6.20;;
50781;SDS011;36749;37.428;-121.972;2023-10-31T08:40:02;12.35;;;6.63;;
50781;SDS011;36749;37.428;-121.972;2023-10-31T08:42:30;15.93;;;6.45;;
50781;SDS011;36749;37.428;-121.972;2023-10-31T08:44:56;17.17;;;6.78;;
50781;SDS011;36749;37.428;-121.972;2023-10-31T08:47:22;13.93;;;6.07;;
50781;SDS011;36749;37.428;-121.972;2023-10-31T08:49:48;15.88;;;7.68;;
50781;SDS011;36749;37.428;-121.972;2023-10-31T08:52:14;13.30;;;6.40;;
50781;SDS011;36749;37.428;-121.972;2023-10-31T08:54:41;14.77;;;7.40;;
50781;SDS011;36749;37.428;-121.972;2023-10-31T08:57:07;16.70;;;7.93;;
50781;SDS011;36749;37.428;-121.972;2023-10-31T08:59:33;14.25;;;6.93;;
50781;SDS011;36749;37.428;-121.972;2023-10-31T09:02:01;17.90;;;7.10;;
50781;SDS011;36749;37.428;-121.972;2023-10-31T09:04:27;13.35;;;6.55;;
50781;SDS011;36749;37.428;-121.972;2023-10-31T09:06:53;16.95;;;7.55;;
50781;SDS011;36749;37.428;-121.972;2023-10-31T09:09:19;14.43;;;7.18;;
50781;SDS011;36749;37.428;-121.972;2023-10-31T09:11:46;13.80;;;6.97;;
50781;SDS011;36749;37.428;-121.972;2023-10-31T09:14:12;13.98;;;7.97;;
50781;SDS011;36749;37.428;-121.972;2023-10-31T09:16:38;16.13;;;7.30;;
50781;SDS011;36749;37.428;-121.972;2023-10-31T09:19:04;17.77;;;8.10;;
50781;SDS011;36749;37.428;-121.972;2023-10-31T09:21:30;14.32;;;7.55;;
50781;SDS011;36749;37.428;-121.972;2023-10-31T09:23:57;21.13;;;8.27;;
50781;SDS011;36749;37.428;-121.972;2023-10-31T09:26:23;18.10;;;7.05;;
50781;SDS011;36749;37.428;-121.972;2023-10-31T09:28:49;15.43;;;7.45;;
50781;SDS011;36749;37.428;-121.972;2023-10-31T09:31:18;13.25;;;6.45;;
50781;SDS011;36749;37.428;-121.972;2023-10-31T09:33:45;16.13;;;7.35;;
50781;SDS011;36749;37.428;-121.972;2023-10-31T09:36:11;15.48;;;7.28;;
50781;SDS011;36749;37.428;-121.972;2023-10-31T09:38:39;13.88;;;7.13;;
50781;SDS011;36749;37.428;-121.972;2023-10-31T09:41:06;14.23;;;6.72;;
50781;SDS011;36749;37.428;-121.972;2023-10-31T09:43:32;14.63;;;7.43;;
50781;SDS011;36749;37.428;-121.972;2023-10-31T09:45:58;19.17;;;7.63;;
50781;SDS011;36749;37.428;-121.972;2023-10-31T09:48:27;11.82;;;6.38;;
50781;SDS011;36749;37.428;-121.972;2023-10-31T09:50:53;17.70;;;8.05;;
50781;SDS011;36749;37.428;-121.972;2023-10-31T09:53:19;19.17;;;7.57;;
50781;SDS011;36749;37.428;-121.972;2023-10-31T09:55:48;13.90;;;7.13;;
50781;SDS011;36749;37.428;-121.972;2023-10-31T09:58:15;11.85;;;6.85;;
50781;SDS011;36749;37.428;-121.972;2023-10-31T10:00:41;15.95;;;6.75;;
50781;SDS011;36749;37.428;-121.972;2023-10-31T10:03:08;15.20;;;6.70;;
50781;SDS011;36749;37.428;-121.972;2023-10-31T10:05:35;18.95;;;7.43;;
50781;SDS011;36749;37.428;-121.972;2023-10-31T10:08:03;18.52;;;7.63;;
50781;SDS011;36749;37.428;-121.972;2023-10-31T10:10:30;14.73;;;6.88;;
50781;SDS011;36749;37.428;-121.972;2023-10-31T10:12:57;16.20;;;6.85;;
50781;SDS011;36749;37.428;-121.972;2023-10-31T10:15:24;13.90;;;7.20;;
50781;SDS011;36749;37.428;-121.972;2023-10-31T10:17:50;13.77;;;7.50;;
50781;SDS011;36749;37.428;-121.972;2023-10-31T10:20:17;11.88;;;6.63;;
50781;SDS011;36749;37.428;-121.972;2023-10-31T10:22:44;14.07;;;7.10;;
50781;SDS011;36749;37.428;-121.972;2023-10-31T10:25:12;13.63;;;6.88;;
50781;SDS011;36749;37.428;-121.972;2023-10-31T10:27:42;14.55;;;6.97;;
50781;SDS011;36749;37.428;-121.972;2023-10-31T10:30:09;15.80;;;7.60;;
50781;SDS011;36749;37.428;-121.972;2023-10-31T10:32:36;17.88;;;6.85;;
50781;SDS011;36749;37.428;-121.972;2023-10-31T10:35:02;15.55;;;7.13;;
50781;SDS011;36749;37.428;-121.972;2023-10-31T10:37:29;14.48;;;6.43;;
50781;SDS011;36749;37.428;-121.972;2023-10-31T10:39:56;16.02;;;7.07;;
50781;SDS011;36749;37.428;-121.972;2023-10-31T10:42:31;14.77;;;6.40;;
50781;SDS011;36749;37.428;-121.972;2023-10-31T10:45:02;11.90;;;6.45;;
50781;SDS011;36749;37.428;-121.972;2023-10-31T10:47:31;12.82;;;6.40;;
50781;SDS011;36749;37.428;-121.972;2023-10-31T10:50:00;16.13;;;7.57;;
50781;SDS011;36749;37.428;-121.972;2023-10-31T10:52:29;15.13;;;6.72;;
50781;SDS011;36749;37.428;-121.972;2023-10-31T10:57:38;13.05;;;6.38;;
50781;SDS011;36749;37.428;-121.972;2023-10-31T11:00:30;12.85;;;6.13;;
50781;SDS011;36749;37.428;-121.972;2023-10-31T11:02:57;18.58;;;6.70;;
50781;SDS011;36749;37.428;-121.972;2023-10-31T11:05:23;15.27;;;6.32;;
50781;SDS011;36749;37.428;-121.972;2023-10-31T11:07:51;17.05;;;6.97;;
50781;SDS011;36749;37.428;-121.972;2023-10-31T11:10:17;12.48;;;6.22;;
50781;SDS011;36749;37.428;-121.972;2023-10-31T11:12:44;17.85;;;6.10;;
50781;SDS011;36749;37.428;-121.972;2023-10-31T11:15:11;15.25;;;6.70;;
50781;SDS011;36749;37.428;-121.972;2023-10-31T11:17:40;12.43;;;6.13;;
50781;SDS011;36749;37.428;-121.972;2023-10-31T11:20:11;13.45;;;6.45;;
50781;SDS011;36749;37.428;-121.972;2023-10-31T11:22:40;17.73;;;6.45;;
50781;SDS011;36749;37.428;-121.972;2023-10-31T11:25:09;11.98;;;6.25;;
50781;SDS011;36749;37.428;-121.972;2023-10-31T11:27:37;11.13;;;6.32;;
50781;SDS011;36749;37.428;-121.972;2023-10-31T11:30:48;13.30;;;5.72;;
50781;SDS011;36749;37.428;-121.972;2023-10-31T11:32:57;12.45;;;5.85;;
50781;SDS011;36749;37.428;-121.972;2023-10-31T11:35:24;15.52;;;6.72;;
50781;SDS011;36749;37.428;-121.972;2023-10-31T11:38:03;12.63;;;5.75;;
50781;SDS011;36749;37.428;-121.972;2023-10-31T11:40:34;11.48;;;5.55;;
50781;SDS011;36749;37.428;-121.972;2023-10-31T11:43:04;13.52;;;7.05;;
50781;SDS011;36749;37.428;-121.972;2023-10-31T11:48:03;10.98;;;6.13;;
50781;SDS011;36749;37.428;-121.972;2023-10-31T11:50:30;14.30;;;6.45;;
50781;SDS011;36749;37.428;-121.972;2023-10-31T11:53:01;13.45;;;5.78;;
50781;SDS011;36749;37.428;-121.972;2023-10-31T11:55:31;11.98;;;6.22;;
50781;SDS011;36749;37.428;-121.972;2023-10-31T12:00:44;13.30;;;6.55;;
50781;SDS011;36749;37.428;-121.972;2023-10-31T12:03:11;12.43;;;5.75;;
50781;SDS011;36749;37.428;-121.972;2023-10-31T12:05:38;12.57;;;5.65;;
50781;SDS011;36749;37.428;-121.972;2023-10-31T12:08:04;11.95;;;5.75;;
50781;SDS011;36749;37.428;-121.972;2023-10-31T12:10:31;13.63;;;6.97;;
50781;SDS011;36749;37.428;-121.972;2023-10-31T12:12:57;13.32;;;5.85;;
50781;SDS011;36749;37.428;-121.972;2023-10-31T12:15:24;10.98;;;6.20;;
50781;SDS011;36749;37.428;-121.972;2023-10-31T12:17:51;13.73;;;6.05;;
50781;SDS011;36749;37.428;-121.972;2023-10-31T12:20:17;12.48;;;6.07;;
50781;SDS011;36749;37.428;-121.972;2023-10-31T12:22:43;9.98;;;5.78;;
50781;SDS011;36749;37.428;-121.972;2023-10-31T12:25:10;13.70;;;6.28;;
50781;SDS011;36749;37.428;-121.972;2023-10-31T12:27:49;12.02;;;6.35;;
50781;SDS011;36749;37.428;-121.972;2023-10-31T12:30:18;14.07;;;5.68;;
50781;SDS011;36749;37.428;-121.972;2023-10-31T12:32:55;11.80;;;6.35;;
50781;SDS011;36749;37.428;-121.972;2023-10-31T12:35:25;8.95;;;5.60;;
50781;SDS011;36749;37.428;-121.972;2023-10-31T12:37:52;15.10;;;6.28;;
50781;SDS011;36749;37.428;-121.972;2023-10-31T12:40:19;20.00;;;6.15;;
50781;SDS011;36749;37.428;-121.972;2023-10-31T12:42:47;21.50;;;7.40;;
50781;SDS011;36749;37.428;-121.972;2023-10-31T12:45:15;15.00;;;6.57;;
50781;SDS011;36749;37.428;-121.972;2023-10-31T12:47:42;21.65;;;7.43;;
50781;SDS011;36749;37.428;-121.972;2023-10-31T12:50:12;27.38;;;8.68;;
50781;SDS011;36749;37.428;-121.972;2023-10-31T12:52:46;23.77;;;8.48;;
50781;SDS011;36749;37.428;-121.972;2023-10-31T12:55:16;18.92;;;7.28;;
50781;SDS011;36749;37.428;-121.972;2023-10-31T12:57:44;15.32;;;6.93;;
50781;SDS011;36749;37.428;-121.972;2023-10-31T13:00:12;20.73;;;8.10;;
50781;SDS011;36749;37.428;-121.972;2023-10-31T13:02:41;18.55;;;7.18;;
50781;SDS011;36749;37.428;-121.972;2023-10-31T13:05:11;13.57;;;6.35;;
50781;SDS011;36749;37.428;-121.972;2023-10-31T13:07:38;17.95;;;6.80;;
50781;SDS011;36749;37.428;-121.972;2023-10-31T13:10:06;17.98;;;7.75;;
50781;SDS011;36749;37.428;-121.972;2023-10-31T13:12:36;18.08;;;6.85;;
50781;SDS011;36749;37.428;-121.972;2023-10-31T13:15:02;13.88;;;7.25;;
50781;SDS011;36749;37.428;-121.972;2023-10-31T13:17:28;14.23;;;7.05;;
50781;SDS011;36749;37.428;-121.972;2023-10-31T13:19:56;15.15;;;6.63;;
50781;SDS011;36749;37.428;-121.972;2023-10-31T13:22:23;15.45;;;6.85;;
50781;SDS011;36749;37.428;-121.972;2023-10-31T13:24:49;15.50;;;7.53;;
50781;SDS011;36749;37.428;-121.972;2023-10-31T13:27:15;13.77;;;7.07;;
50781;SDS011;36749;37.428;-121.972;2023-10-31T13:29:42;16.17;;;7.85;;
50781;SDS011;36749;37.428;-121.972;2023-10-31T13:32:08;16.95;;;7.43;;
50781;SDS011;36749;37.428;-121.972;2023-10-31T13:34:34;14.85;;;6.95;;
50781;SDS011;36749;37.428;-121.972;2023-10-31T13:37:01;14.02;;;7.28;;
50781;SDS011;36749;37.428;-121.972;2023-10-31T13:39:28;18.75;;;6.85;;
50781;SDS011;36749;37.428;-121.972;2023-10-31T13:41:54;13.27;;;6.57;;
50781;SDS011;36749;37.428;-121.972;2023-10-31T13:44:20;14.63;;;7.55;;
50781;SDS011;36749;37.428;-121.972;2023-10-31T13:46:46;18.67;;;6.50;;
50781;SDS011;36749;37.428;-121.972;2023-10-31T13:49:13;14.65;;;7.82;;
50781;SDS011;36749;37.428;-121.972;2023-10-31T13:51:39;15.23;;;6.72;;
50781;SDS011;36749;37.428;-121.972;2023-10-31T13:54:05;15.10;;;8.00;;
50781;SDS011;36749;37.428;-121.972;2023-10-31T13:56:31;16.38;;;7.22;;
50781;SDS011;36749;37.428;-121.972;2023-10-31T13:58:58;14.40;;;7.32;;
50781;SDS011;36749;37.428;-121.972;2023-10-31T14:01:24;14.45;;;6.47;;
50781;SDS011;36749;37.428;-121.972;2023-10-31T14:03:51;18.30;;;6.82;;
50781;SDS011;36749;37.428;-121.972;2023-10-31T14:06:17;14.52;;;6.30;;